KLBE/LBE METAR and TAF weather

Enter ICAO airport designator
Station Type Date Time Source
KLBE METAR 2019/12/08 18:51 UTC NOAA

KLBE 081851Z 18010G15KT 10SM OVC055 11/01 A3016


Station Type Date Time Source
KLBE Decoded METAR 2019/12/08 18:51 UTC NOAA

Latrobe / Westmorland, PA, United States (KLBE) 40-17N 079-24W
Dec 08, 2019 - 01:51 PM EST / 2019.12.08 1851 UTC
Wind: from the S (180 degrees) at 12 MPH (10 KT) gusting to 17 MPH (15 KT):0
Visibility: 10 mile(s):0
Sky conditions: overcast
Temperature: 51 F (11 C)
Dew Point: 33 F (1 C)
Relative Humidity: 50%
Pressure (altimeter): 30.16 in. Hg (1021 hPa)
ob: KLBE 081851Z 18010G15KT 10SM OVC055 11/01 A3016
cycle: 19

Station Type Date Time Source
KLBE TAF 2019/12/08 18:36 UTC NOAA

TAF KLBE 081733Z 0818/0918 17012KT P6SM BKN050
FM090600 17008G16KT P6SM VCSH OVC090
FM091300 16008KT 5SM -SHRA OVC025
FM091500 17008G16KT 2SM -RA OVC008

Example: see airport list